createdAt,value
2018-11-11T00:00:51.910Z,2.70
2018-11-11T00:03:20.930Z,2.73
2018-11-11T00:05:49.184Z,2.77
2018-11-11T00:08:18.203Z,2.97
2018-11-11T00:10:46.471Z,2.87
2018-11-11T00:13:14.767Z,3.20
2018-11-11T00:15:42.998Z,3.27
2018-11-11T00:18:12.017Z,3.70
2018-11-11T00:20:40.287Z,3.77
2018-11-11T00:23:08.529Z,3.50
2018-11-11T00:25:37.563Z,3.73
2018-11-11T00:28:05.855Z,3.93
2018-11-11T00:30:34.092Z,3.63
2018-11-11T00:35:37.603Z,3.73
2018-11-11T00:38:06.655Z,3.33
2018-11-11T00:40:34.925Z,3.50
2018-11-11T00:43:03.170Z,3.60
2018-11-11T00:45:31.429Z,3.60
2018-11-11T00:48:00.490Z,3.50
2018-11-11T00:50:28.739Z,3.90
2018-11-11T00:52:57.006Z,3.10
2018-11-11T00:55:25.247Z,3.47
2018-11-11T00:57:53.498Z,3.50
2018-11-11T01:00:22.527Z,3.00
2018-11-11T01:02:50.768Z,3.07
2018-11-11T01:05:19.014Z,3.10
2018-11-11T01:07:47.276Z,2.70
2018-11-11T01:10:15.551Z,2.93
2018-11-11T01:12:43.786Z,2.60
2018-11-11T01:15:12.047Z,2.83
2018-11-11T01:17:41.050Z,3.03
2018-11-11T01:20:10.096Z,3.20
2018-11-11T01:22:38.358Z,3.00
2018-11-11T01:25:06.630Z,3.20
2018-11-11T01:27:34.879Z,3.33
2018-11-11T01:30:03.163Z,6.37
2018-11-11T01:32:31.412Z,7.13
2018-11-11T01:35:00.438Z,6.43
2018-11-11T01:37:28.679Z,5.47
2018-11-11T01:39:58.539Z,5.73
2018-11-11T01:42:26.786Z,5.30
2018-11-11T01:44:55.057Z,5.03
2018-11-11T01:47:24.093Z,4.87
2018-11-11T01:49:52.397Z,4.70
2018-11-11T01:52:21.434Z,4.80
2018-11-11T01:54:49.685Z,5.30
2018-11-11T01:57:18.722Z,4.93
2018-11-11T01:59:46.958Z,5.93
2018-11-11T02:02:15.210Z,6.47
2018-11-11T02:04:43.478Z,5.60
2018-11-11T02:07:11.723Z,5.70
2018-11-11T02:09:39.990Z,5.83
2018-11-11T02:12:08.218Z,5.47
2018-11-11T02:14:37.244Z,5.17
2018-11-11T02:17:05.762Z,5.17
2018-11-11T02:19:34.011Z,3.23
2018-11-11T02:22:02.257Z,6.03
2018-11-11T02:24:30.506Z,2.50
2018-11-11T02:26:58.761Z,3.37
2018-11-11T02:29:27.019Z,4.53
2018-11-11T02:31:55.299Z,3.90
2018-11-11T02:34:23.530Z,2.77
2018-11-11T02:36:51.796Z,2.90
2018-11-11T02:39:20.887Z,2.90
2018-11-11T02:41:49.112Z,3.43
2018-11-11T02:44:17.362Z,3.33
2018-11-11T02:46:45.938Z,4.00
2018-11-11T02:49:14.173Z,3.20
2018-11-11T02:51:42.414Z,3.20
2018-11-11T02:54:10.679Z,3.40
2018-11-11T02:56:38.928Z,3.83
2018-11-11T02:59:07.165Z,5.20
2018-11-11T03:01:35.418Z,6.47
2018-11-11T03:04:03.890Z,5.00
2018-11-11T03:06:32.126Z,2.33
2018-11-11T03:09:00.378Z,2.37
2018-11-11T03:11:29.389Z,2.23
2018-11-11T03:13:57.643Z,3.70
2018-11-11T03:16:26.667Z,2.90
2018-11-11T03:18:54.923Z,2.50
2018-11-11T03:21:23.931Z,2.60
2018-11-11T03:23:52.903Z,3.17
2018-11-11T03:26:21.906Z,3.00
2018-11-11T03:28:50.926Z,2.87
2018-11-11T03:31:19.183Z,2.70
2018-11-11T03:33:47.427Z,3.43
2018-11-11T03:36:15.690Z,3.60
2018-11-11T03:38:43.939Z,3.67
2018-11-11T03:41:12.241Z,3.93
2018-11-11T03:43:40.494Z,3.93
2018-11-11T03:46:08.734Z,4.60
2018-11-11T03:48:36.971Z,4.47
2018-11-11T03:51:06.477Z,4.30
2018-11-11T03:53:34.702Z,3.97
2018-11-11T03:56:02.938Z,3.40
2018-11-11T03:58:31.950Z,3.20
2018-11-11T04:01:00.467Z,3.27
2018-11-11T04:03:28.702Z,2.93
2018-11-11T04:05:56.937Z,3.10
2018-11-11T04:08:25.470Z,3.20
2018-11-11T04:10:53.731Z,3.20
2018-11-11T04:13:21.967Z,3.00
2018-11-11T04:15:50.222Z,2.67
2018-11-11T04:18:18.475Z,2.77
2018-11-11T04:20:46.744Z,3.07
2018-11-11T04:23:14.973Z,3.00
2018-11-11T04:25:43.219Z,3.07
2018-11-11T04:28:11.842Z,2.97
2018-11-11T04:30:40.047Z,3.20
2018-11-11T04:33:08.287Z,3.47
2018-11-11T04:35:37.623Z,3.87
2018-11-11T04:38:05.871Z,3.40
2018-11-11T04:40:34.879Z,2.90
2018-11-11T04:43:03.142Z,2.70
2018-11-11T04:45:31.695Z,2.63
2018-11-11T04:47:59.967Z,2.67
2018-11-11T04:50:28.231Z,2.77
2018-11-11T04:52:56.494Z,3.10
2018-11-11T04:55:24.758Z,3.20
2018-11-11T04:57:52.984Z,3.33
2018-11-11T05:00:21.245Z,3.50
2018-11-11T05:02:49.482Z,3.20
2018-11-11T05:05:17.745Z,3.17
2018-11-11T05:07:45.985Z,3.30
2018-11-11T05:10:14.993Z,3.23
2018-11-11T05:12:44.011Z,3.20
2018-11-11T05:15:12.250Z,3.40
2018-11-11T05:17:41.287Z,2.70
2018-11-11T05:20:09.530Z,2.63
2018-11-11T05:22:38.551Z,2.53
2018-11-11T05:25:07.011Z,3.00
2018-11-11T05:27:35.270Z,2.90
2018-11-11T05:30:04.283Z,3.33
2018-11-11T05:32:32.533Z,3.73
2018-11-11T05:35:01.556Z,2.83
2018-11-11T05:37:30.130Z,3.30
2018-11-11T05:39:58.403Z,3.63
2018-11-11T05:42:26.640Z,3.10
2018-11-11T05:44:54.926Z,3.33
2018-11-11T05:47:23.191Z,3.60
2018-11-11T05:49:51.429Z,3.57
2018-11-11T05:52:19.678Z,3.53
2018-11-11T05:54:47.919Z,3.97
2018-11-11T05:57:16.176Z,3.30
2018-11-11T05:59:44.411Z,2.90
2018-11-11T06:02:12.658Z,2.70
2018-11-11T06:04:41.681Z,2.53
2018-11-11T06:07:10.016Z,2.50
2018-11-11T06:09:38.218Z,2.10
2018-11-11T06:12:06.478Z,4.23
2018-11-11T06:14:35.499Z,3.80
2018-11-11T06:17:03.718Z,3.67
2018-11-11T06:19:32.022Z,4.20
2018-11-11T06:22:00.227Z,4.83
2018-11-11T06:24:28.486Z,4.97
2018-11-11T06:26:56.723Z,4.73
2018-11-11T06:29:24.970Z,4.60
2018-11-11T06:31:53.210Z,5.07
2018-11-11T06:34:21.473Z,5.73
2018-11-11T06:36:50.506Z,5.13
2018-11-11T06:39:18.750Z,5.43
2018-11-11T06:41:47.002Z,5.10
2018-11-11T06:44:16.021Z,4.97
2018-11-11T06:46:44.275Z,4.60
2018-11-11T06:49:13.283Z,4.57
2018-11-11T06:51:41.882Z,4.63
2018-11-11T06:54:10.126Z,4.00
2018-11-11T06:56:39.130Z,4.40
2018-11-11T06:59:07.553Z,3.70
2018-11-11T07:01:35.805Z,3.67
2018-11-11T07:04:04.045Z,3.57
2018-11-11T07:06:33.384Z,3.70
2018-11-11T07:09:01.603Z,3.40
2018-11-11T07:11:29.834Z,3.17
2018-11-11T07:13:58.159Z,3.50
2018-11-11T07:16:26.337Z,3.57
2018-11-11T07:18:56.476Z,3.30
2018-11-11T07:21:25.670Z,3.20
2018-11-11T07:23:54.781Z,3.30
2018-11-11T07:26:22.978Z,2.90
2018-11-11T07:28:51.218Z,3.03
2018-11-11T07:31:19.564Z,2.47
2018-11-11T07:33:47.771Z,2.80
2018-11-11T07:36:16.048Z,3.20
2018-11-11T07:38:44.298Z,2.40
2018-11-11T07:41:13.304Z,2.53
2018-11-11T07:43:41.643Z,2.40
2018-11-11T07:46:09.878Z,2.73
2018-11-11T07:48:38.118Z,2.40
2018-11-11T07:51:07.668Z,2.37
2018-11-11T07:53:36.755Z,2.10
2018-11-11T07:56:05.007Z,2.27
2018-11-11T07:58:33.328Z,2.00
2018-11-11T08:01:02.493Z,1.93
2018-11-11T08:03:30.726Z,1.97
2018-11-11T08:06:00.970Z,2.03
2018-11-11T08:08:29.197Z,1.57
2018-11-11T08:11:20.275Z,1.97
2018-11-11T08:13:48.469Z,1.70
2018-11-11T08:16:16.725Z,1.33
2018-11-11T08:18:44.994Z,1.80
2018-11-11T08:21:13.254Z,1.73
2018-11-11T08:23:41.861Z,1.50
2018-11-11T08:26:10.099Z,1.20
2018-11-11T08:28:39.105Z,1.37
2018-11-11T08:31:07.910Z,1.27
2018-11-11T08:33:36.202Z,1.60
2018-11-11T08:36:04.437Z,1.50
2018-11-11T08:38:32.715Z,1.60
2018-11-11T08:41:02.067Z,1.50
2018-11-11T08:43:30.286Z,1.40
2018-11-11T08:45:59.299Z,1.20
2018-11-11T08:48:27.556Z,1.10
2018-11-11T08:50:55.806Z,0.80
2018-11-11T08:53:24.831Z,1.20
2018-11-11T08:55:53.066Z,1.20
2018-11-11T08:58:21.330Z,0.90
2018-11-11T09:00:49.658Z,1.13
2018-11-11T09:03:17.898Z,1.03
2018-11-11T09:05:46.142Z,1.10
2018-11-11T09:08:14.691Z,1.00
2018-11-11T09:10:42.927Z,0.77
2018-11-11T09:13:11.186Z,1.00
2018-11-11T09:15:39.675Z,1.00
2018-11-11T09:18:07.927Z,1.13
2018-11-11T09:20:36.167Z,0.90
2018-11-11T09:23:04.434Z,0.73
2018-11-11T09:25:32.686Z,1.13
2018-11-11T09:28:01.708Z,1.03
2018-11-11T09:30:30.109Z,0.90
2018-11-11T09:32:58.750Z,1.10
2018-11-11T09:35:27.827Z,1.00
2018-11-11T09:37:55.990Z,0.90
2018-11-11T09:40:24.519Z,0.90
2018-11-11T09:42:52.767Z,1.00
2018-11-11T09:45:21.036Z,0.93
2018-11-11T09:47:49.280Z,1.00
2018-11-11T09:50:17.517Z,0.90
2018-11-11T09:52:45.883Z,0.80
2018-11-11T09:55:14.074Z,0.87
2018-11-11T09:57:42.330Z,1.10
2018-11-11T10:00:11.343Z,1.07
2018-11-11T10:02:39.609Z,0.90
2018-11-11T10:05:08.364Z,0.90
2018-11-11T10:07:36.574Z,0.90
2018-11-11T10:10:04.810Z,0.70
2018-11-11T10:12:33.906Z,0.87
2018-11-11T10:15:02.082Z,0.90
2018-11-11T10:17:30.314Z,0.80
2018-11-11T10:19:58.600Z,0.60
2018-11-11T10:22:27.212Z,0.70
2018-11-11T10:24:55.415Z,0.70
2018-11-11T10:27:23.754Z,0.60
2018-11-11T10:29:51.980Z,0.60
2018-11-11T10:35:37.075Z,0.68
2018-11-11T10:38:05.302Z,0.80
2018-11-11T10:40:34.311Z,0.60
2018-11-11T10:43:03.342Z,0.70
2018-11-11T10:45:31.579Z,0.63
2018-11-11T10:47:59.825Z,0.90
2018-11-11T10:50:28.090Z,0.50
2018-11-11T10:52:56.340Z,0.50
2018-11-11T10:55:24.638Z,0.60
2018-11-11T10:57:52.896Z,0.67
2018-11-11T11:00:21.284Z,0.70
2018-11-11T11:02:49.452Z,0.63
2018-11-11T11:05:17.703Z,0.63
2018-11-11T11:07:45.959Z,0.60
2018-11-11T11:10:14.220Z,0.80
2018-11-11T11:12:43.230Z,0.70
2018-11-11T11:15:11.481Z,0.83
2018-11-11T11:17:40.818Z,0.60
2018-11-11T11:20:09.120Z,0.83
2018-11-11T11:22:37.355Z,1.33
2018-11-11T11:25:05.603Z,1.00
2018-11-11T11:27:34.613Z,0.70
2018-11-11T11:30:02.867Z,1.07
2018-11-11T11:32:31.094Z,1.10
2018-11-11T11:34:59.362Z,1.03
2018-11-11T11:37:27.600Z,0.90
2018-11-11T11:39:57.752Z,1.20
2018-11-11T11:42:26.309Z,1.20
2018-11-11T11:44:55.331Z,1.10
2018-11-11T11:47:23.657Z,1.20
2018-11-11T11:49:52.681Z,1.30
2018-11-11T11:52:20.959Z,1.20
2018-11-11T11:54:49.122Z,0.93
2018-11-11T11:57:17.375Z,1.03
2018-11-11T11:59:46.379Z,1.07
2018-11-11T12:02:15.461Z,1.00
2018-11-11T12:04:43.662Z,1.27
2018-11-11T12:07:11.951Z,1.17
2018-11-11T12:09:40.215Z,1.30
2018-11-11T12:12:08.459Z,1.30
2018-11-11T12:14:36.717Z,1.10
2018-11-11T12:17:06.531Z,1.30
2018-11-11T12:19:34.743Z,1.07
2018-11-11T12:22:03.758Z,1.30
2018-11-11T12:24:32.010Z,1.30
2018-11-11T12:27:00.523Z,1.30
2018-11-11T12:29:28.767Z,1.27
2018-11-11T12:31:57.018Z,1.27
2018-11-11T12:34:26.051Z,1.00
2018-11-11T12:36:54.352Z,1.10
2018-11-11T12:39:22.954Z,1.23
2018-11-11T12:41:51.138Z,1.43
2018-11-11T12:44:19.407Z,1.27
2018-11-11T12:46:47.771Z,1.17
2018-11-11T12:49:15.973Z,1.00
2018-11-11T12:51:44.147Z,1.03
2018-11-11T12:54:13.200Z,1.13
2018-11-11T12:56:41.424Z,1.10
2018-11-11T12:59:11.126Z,1.20
2018-11-11T13:01:40.123Z,1.00
2018-11-11T13:04:09.167Z,0.97
2018-11-11T13:06:37.455Z,0.90
2018-11-11T13:09:05.967Z,1.00
2018-11-11T13:11:35.068Z,1.10
2018-11-11T13:14:03.982Z,1.13
2018-11-11T13:16:32.233Z,1.00
2018-11-11T13:19:01.247Z,1.00
2018-11-11T13:21:29.531Z,1.10
2018-11-11T13:23:57.771Z,1.00
2018-11-11T13:26:26.774Z,1.07
2018-11-11T13:28:55.031Z,1.00
2018-11-11T13:31:24.071Z,1.30
2018-11-11T13:33:52.488Z,1.17
2018-11-11T13:36:20.742Z,1.07
2018-11-11T13:38:49.007Z,1.20
2018-11-11T13:41:17.243Z,1.20
2018-11-11T13:43:46.278Z,1.13
2018-11-11T13:46:14.608Z,1.27
2018-11-11T13:48:42.794Z,1.03
2018-11-11T13:51:12.010Z,0.93
2018-11-11T13:53:40.274Z,1.20
2018-11-11T13:56:08.535Z,1.07
2018-11-11T13:58:37.557Z,1.07
2018-11-11T14:01:05.802Z,1.63
2018-11-11T14:03:34.074Z,0.90
2018-11-11T14:06:03.167Z,1.47
2018-11-11T14:08:31.441Z,1.20
2018-11-11T14:11:00.524Z,0.90
2018-11-11T14:13:28.763Z,1.27
2018-11-11T14:15:57.038Z,0.83
2018-11-11T14:18:25.343Z,1.03
2018-11-11T14:20:53.530Z,1.30
2018-11-11T14:23:22.576Z,1.10
2018-11-11T14:25:50.861Z,0.90
2018-11-11T14:28:19.822Z,0.90
2018-11-11T14:30:48.074Z,0.90
2018-11-11T14:33:16.323Z,1.20
2018-11-11T14:35:44.644Z,1.13
2018-11-11T14:38:12.868Z,1.27
2018-11-11T14:40:41.114Z,1.10
2018-11-11T14:43:10.148Z,1.00
2018-11-11T14:45:38.423Z,0.90
2018-11-11T14:48:06.703Z,1.20
2018-11-11T14:50:35.712Z,1.30
2018-11-11T14:53:04.059Z,1.00
2018-11-11T14:55:32.994Z,1.00
2018-11-11T14:58:01.362Z,1.00
2018-11-11T15:00:29.506Z,1.00
2018-11-11T15:02:58.549Z,1.20
2018-11-11T15:05:26.814Z,1.03
2018-11-11T15:07:55.073Z,1.20
2018-11-11T15:10:24.090Z,1.13
2018-11-11T15:12:52.407Z,0.90
2018-11-11T15:15:21.415Z,1.00
2018-11-11T15:17:49.674Z,0.80
2018-11-11T15:20:18.136Z,0.90
2018-11-11T15:22:46.169Z,0.97
2018-11-11T15:25:14.535Z,1.00
2018-11-11T15:27:42.695Z,0.70
2018-11-11T15:30:11.728Z,1.03
2018-11-11T15:32:39.985Z,1.20
2018-11-11T15:35:08.247Z,0.80
2018-11-11T15:37:36.530Z,0.83
2018-11-11T15:40:04.778Z,1.10
2018-11-11T15:42:33.810Z,0.80
2018-11-11T15:45:02.078Z,1.00
2018-11-11T15:47:30.318Z,0.70
2018-11-11T15:49:59.411Z,1.00
2018-11-11T15:52:27.630Z,0.90
2018-11-11T15:54:55.891Z,0.90
2018-11-11T15:57:24.131Z,0.93
2018-11-11T15:59:52.429Z,0.83
2018-11-11T16:02:21.444Z,1.00
2018-11-11T16:04:49.685Z,1.30
2018-11-11T16:07:18.711Z,1.00
2018-11-11T16:09:46.951Z,1.03
2018-11-11T16:12:15.998Z,0.90
2018-11-11T16:14:44.242Z,0.87
2018-11-11T16:17:12.674Z,1.00
2018-11-11T16:19:40.936Z,1.50
2018-11-11T16:22:09.207Z,0.90
2018-11-11T16:24:37.486Z,1.20
2018-11-11T16:27:05.750Z,1.10
2018-11-11T16:29:34.066Z,1.10
2018-11-11T16:32:02.278Z,0.93
2018-11-11T16:34:30.530Z,1.03
2018-11-11T16:36:59.623Z,1.20
2018-11-11T16:39:27.908Z,1.17
2018-11-11T16:41:56.134Z,1.53
2018-11-11T16:44:24.378Z,0.90
2018-11-11T16:46:52.613Z,1.43
2018-11-11T16:49:21.653Z,8.93
2018-11-11T16:51:49.913Z,1.90
2018-11-11T16:54:18.195Z,1.63
2018-11-11T16:56:46.463Z,1.40
2018-11-11T16:59:14.728Z,2.27
2018-11-11T17:01:43.018Z,1.70
2018-11-11T17:04:11.327Z,1.60
2018-11-11T17:06:40.332Z,1.60
2018-11-11T17:09:08.605Z,1.30
2018-11-11T17:11:36.859Z,1.30
2018-11-11T17:14:05.200Z,1.30
2018-11-11T17:16:33.405Z,1.40
2018-11-11T17:19:01.664Z,0.90
2018-11-11T17:21:29.959Z,1.37
2018-11-11T17:23:58.200Z,1.37
2018-11-11T17:26:26.461Z,1.07
2018-11-11T17:28:55.534Z,1.10
2018-11-11T17:31:23.750Z,1.10
2018-11-11T17:33:52.020Z,1.30
2018-11-11T17:36:21.011Z,1.60
2018-11-11T17:38:49.290Z,1.30
2018-11-11T17:41:17.572Z,1.20
2018-11-11T17:43:46.561Z,1.33
2018-11-11T17:46:14.835Z,1.10
2018-11-11T17:48:43.142Z,1.47
2018-11-11T17:51:12.249Z,1.03
2018-11-11T17:53:40.498Z,1.27
2018-11-11T17:56:08.794Z,1.40
2018-11-11T17:58:37.031Z,1.27
2018-11-11T18:01:05.656Z,1.20
2018-11-11T18:03:33.957Z,1.30
2018-11-11T18:06:02.858Z,1.43
2018-11-11T18:08:31.898Z,1.60
2018-11-11T18:11:00.142Z,1.47
2018-11-11T18:13:28.418Z,1.30
2018-11-11T18:15:56.671Z,1.50
2018-11-11T18:18:25.710Z,1.60
2018-11-11T18:20:53.962Z,1.30
2018-11-11T18:23:22.210Z,1.70
2018-11-11T18:25:51.238Z,1.60
2018-11-11T18:28:19.620Z,1.50
2018-11-11T18:30:48.402Z,1.70
2018-11-11T18:33:16.655Z,1.70
2018-11-11T18:35:45.707Z,1.70
2018-11-11T18:38:13.980Z,1.50
2018-11-11T18:40:42.221Z,1.70
2018-11-11T18:43:10.487Z,1.80
2018-11-11T18:45:39.662Z,1.63
2018-11-11T18:48:08.719Z,1.47
2018-11-11T18:50:37.401Z,1.30
2018-11-11T18:53:06.406Z,1.80
2018-11-11T18:55:34.678Z,1.33
2018-11-11T18:58:02.910Z,1.37
2018-11-11T19:00:31.185Z,1.33
2018-11-11T19:02:59.448Z,1.50
2018-11-11T19:05:27.722Z,1.30
2018-11-11T19:07:55.970Z,1.30
2018-11-11T19:10:25.089Z,1.30
2018-11-11T19:12:53.268Z,1.40
2018-11-11T19:15:22.294Z,1.60
2018-11-11T19:17:50.539Z,1.40
2018-11-11T19:20:18.827Z,1.40
2018-11-11T19:22:47.071Z,1.30
2018-11-11T19:25:16.206Z,1.30
2018-11-11T19:27:44.445Z,1.47
2018-11-11T19:30:12.702Z,1.30
2018-11-11T19:32:40.898Z,1.60
2018-11-11T19:35:09.114Z,1.40
2018-11-11T19:37:37.391Z,1.43
2018-11-11T19:40:06.402Z,1.40
2018-11-11T19:42:34.681Z,1.60
2018-11-11T19:45:02.929Z,1.70
2018-11-11T19:47:31.270Z,1.70
2018-11-11T19:50:00.858Z,1.53
2018-11-11T19:52:30.018Z,1.40
2018-11-11T19:54:58.310Z,1.53
2018-11-11T19:57:26.693Z,1.50
2018-11-11T19:59:55.088Z,1.40
2018-11-11T20:02:24.136Z,1.40
2018-11-11T20:04:52.381Z,1.40
2018-11-11T20:07:20.727Z,1.60
2018-11-11T20:09:49.111Z,1.30
2018-11-11T20:12:18.219Z,1.60
2018-11-11T20:14:47.371Z,1.30
2018-11-11T20:17:15.833Z,1.37
2018-11-11T20:19:44.351Z,1.63
2018-11-11T20:22:13.367Z,1.30
2018-11-11T20:24:41.657Z,1.40
2018-11-11T20:27:09.901Z,1.40
2018-11-11T20:29:38.919Z,1.70
2018-11-11T20:32:07.227Z,1.40
2018-11-11T20:34:35.482Z,1.27
2018-11-11T20:37:03.794Z,1.30
2018-11-11T20:39:32.017Z,1.20
2018-11-11T20:42:00.266Z,1.27
2018-11-11T20:44:29.298Z,1.27
2018-11-11T20:46:57.532Z,1.20
2018-11-11T20:49:26.573Z,1.33
2018-11-11T20:51:54.834Z,1.43
2018-11-11T20:54:23.094Z,1.20
2018-11-11T20:56:51.443Z,1.40
2018-11-11T20:59:20.373Z,1.47
2018-11-11T21:01:48.663Z,1.00
2018-11-11T21:04:16.900Z,1.27
2018-11-11T21:06:45.931Z,1.40
2018-11-11T21:09:14.507Z,1.27
2018-11-11T21:11:42.662Z,1.60
2018-11-11T21:14:11.699Z,1.50
2018-11-11T21:16:39.967Z,1.57
2018-11-11T21:19:08.229Z,1.20
2018-11-11T21:21:36.479Z,1.47
2018-11-11T21:24:04.746Z,1.70
2018-11-11T21:26:33.035Z,1.63
2018-11-11T21:29:01.311Z,1.50
2018-11-11T21:31:29.606Z,1.70
2018-11-11T21:33:57.862Z,1.40
2018-11-11T21:36:26.108Z,1.70
2018-11-11T21:38:55.136Z,1.50
2018-11-11T21:41:23.380Z,1.57
2018-11-11T21:43:52.865Z,1.50
2018-11-11T21:46:21.114Z,1.47
2018-11-11T21:48:49.375Z,1.50
2018-11-11T21:51:17.658Z,1.40
2018-11-11T21:53:45.935Z,1.40
2018-11-11T21:56:14.227Z,1.60
2018-11-11T21:58:42.442Z,1.47
2018-11-11T22:01:11.496Z,1.40
2018-11-11T22:03:39.746Z,1.43
2018-11-11T22:06:07.993Z,1.53
2018-11-11T22:08:36.256Z,1.50
2018-11-11T22:11:05.404Z,1.40
2018-11-11T22:13:33.905Z,1.50
2018-11-11T22:16:02.304Z,1.30
2018-11-11T22:18:30.439Z,1.40
2018-11-11T22:20:58.702Z,1.30
2018-11-11T22:23:26.936Z,1.17
2018-11-11T22:25:55.202Z,1.37
2018-11-11T22:28:24.210Z,1.40
2018-11-11T22:30:52.561Z,1.50
2018-11-11T22:33:20.765Z,1.40
2018-11-11T22:35:49.030Z,1.60
2018-11-11T22:38:18.103Z,1.30
2018-11-11T22:40:46.311Z,1.33
2018-11-11T22:43:14.661Z,1.43
2018-11-11T22:45:42.892Z,1.30
2018-11-11T22:48:11.160Z,1.43
2018-11-11T22:50:39.398Z,1.00
2018-11-11T22:53:07.638Z,1.30
2018-11-11T22:55:35.905Z,1.13
2018-11-11T22:58:04.193Z,1.10
2018-11-11T23:00:32.439Z,1.40
2018-11-11T23:03:00.689Z,1.20
2018-11-11T23:05:29.133Z,1.30
2018-11-11T23:07:58.141Z,1.20
2018-11-11T23:10:26.398Z,1.03
2018-11-11T23:12:55.428Z,1.23
2018-11-11T23:15:23.689Z,1.47
2018-11-11T23:17:51.940Z,1.17
2018-11-11T23:20:20.974Z,1.23
2018-11-11T23:22:49.218Z,1.30
2018-11-11T23:25:18.245Z,1.10
2018-11-11T23:27:46.486Z,1.13
2018-11-11T23:30:15.494Z,1.10
2018-11-11T23:32:43.763Z,1.00
2018-11-11T23:35:12.011Z,1.07
2018-11-11T23:37:40.269Z,1.20
2018-11-11T23:40:08.526Z,1.13
2018-11-11T23:42:36.790Z,1.10
2018-11-11T23:45:05.038Z,1.30
2018-11-11T23:47:33.287Z,1.20
2018-11-11T23:50:02.422Z,1.50
2018-11-11T23:52:30.678Z,1.20
2018-11-11T23:54:58.938Z,1.10
2018-11-11T23:57:27.983Z,1.33
2018-11-11T23:59:59.151Z,1.10
